SKBG

Palonegro Airport

Bucaramanga, Colombia
TAF SKBG 260500Z 2606/2706 00000KT 9999 FEW010 BKN070 TEMPO 2609/2614 4000 DZ BCFG BKN007 BECMG 2615/2617 33010KT SCT017 SCT080 TEMPO 2621/2702 5000 TSRA SCT014CB SCT017 TX27/2618Z TN18/2611Z
Issued Valid From Valid To
Apr-26 @ 05:00 UTC
(54 minutes ago)
Apr-26 @ 06:00 UTC
(in 6 minutes)
Apr-27 @ 06:00 UTC
(in 24 hours)
Apr-26 @ 06:00 to Apr-26 @ 15:00
TAF SKBG 260500Z 2606/2706 00000KT 9999 FEW010 BKN070
Visibility Clouds
10,000+ meters
  • Few at 1,000' AGL
  • Broken at 7,000' AGL
Temporary Apr-26 @ 09:00 to Apr-26 @ 14:00
TEMPO 2609/2614 4000 DZ BCFG BKN007
Visibility Clouds Conditions
4,007 meters
  • Broken at 700' AGL
  • Drizzle
  • Patches of
  • Fog
Becoming Apr-26 @ 15:00 to Apr-27 @ 06:00
BECMG 2615/2617 33010KT SCT017 SCT080
Wind Visibility Clouds
330° at 10 knots 10,000+ meters
  • Scattered at 1,700' AGL
  • Scattered at 8,000' AGL
Temporary Apr-26 @ 21:00 to Apr-27 @ 02:00
TEMPO 2621/2702 5000 TSRA SCT014CB SCT017 TX27/2618Z TN18/2611Z
Visibility Clouds Conditions
5,005 meters
  • Scattered at 1,400' AGL
  • Scattered at 1,700' AGL
  • Thunderstorm
  • Rain
TAF SKBG 260500Z 2606/2706 00000KT 9999 FEW010 BKN070 TEMPO 2609/2614 4000 DZ BCFG BKN007 BECMG 2615/2617 33010KT SCT017 SCT080 TEMPO 2621/2702 5000 TSRA SCT014CB SCT017 TX27/2618Z TN18/2611Z
Issued Apr-26 @ 05:00 UTC
(54 minutes ago)
Valid From Apr-26 @ 06:00 UTC
(in 6 minutes)
Valid To Apr-27 @ 06:00 UTC
(in 24 hours)
Apr-26 @ 06:00 - Apr-26 @ 15:00
Clouds
  • Few at 1,000' AGL
  • Broken at 7,000' AGL
Temporary Apr-26 @ 09:00 - Apr-26 @ 14:00
Clouds
  • Broken at 700' AGL
Conditions
  • Drizzle
  • Patches of
  • Fog
Becoming Apr-26 @ 15:00 - Apr-27 @ 06:00
Wind Visibility
330° at 10 knots 10,000+ meters
Clouds
  • Scattered at 1,700' AGL
  • Scattered at 8,000' AGL
Temporary Apr-26 @ 21:00 - Apr-27 @ 02:00
Clouds
  • Scattered at 1,400' AGL
  • Scattered at 1,700' AGL
Conditions
  • Thunderstorm
  • Rain